Yeager Airport
KCRW : rendu visible

Aérodrome :











RETROUVEZ-NOUS SUR...

 
LOGIN :

S'inscrire | Disclaimer

   EN    FR    IT 

 









Légende :    VFR   VFR Marginal   IFR   IFR Intensif   IFR Très Intensif
Visi : 
Plafond : 
>= 8 km
>= 3000ft
5 à 8 km
1000 à 3000 ft
1500m à 5 km
500 à 1000 ft
800 à 1500m
200 à 500 ft
< 800m
< 200 ft
Symboles :   Orages  Brouillard  Fortes neiges  Fortes précipitations  Vent > 20 kt






- Altitude de l'aérodrome : 981 ft
- Code IATA : CRW


KCRW - Yeager

DERNIER METAR :
  • 081201Z 00000KT 9SM TSRA SCT042 BKN050 OVC065 13/12 A2977 RMK AO2 LTG DSNT SE AND SW AND NW P0001 T01330122

METARs EXPIRÉS :
  • 081154Z 13003KT 4SM -TSRA BR FEW001 OVC027CB 13/12 A2976 RMK AO2 LTG DSNT ALQDS SLP073 FRQ LTGICCG OHD AND ALQDS TS OHD AND ALQDS MOV SE VLY FG P0048 60049 70051 T01330117 10217 20128 51021
  • 081133Z COR 11005KT 4SM TSRA BR FEW007 OVC017CB 13/12 A2977 RMK AO2 LTG DSNT ALQDS FRQ LTGICCG OHD AND ALQDS TS OHD AND ALQDS MOV SE VLY FG P0034 T01280117
  • 081054Z COR 07008KT 10SM -TSRA OVC027CB 14/11 A2976 RMK AO2 LTG DSNT ALQDS RAB15 SLP069 OCNL LTGIC NW-E TS NW-E MOV SE P0001 T01440111
  • 080954Z 05008G24KT 10SM TS BKN027CB OVC060 17/10 A2973 RMK AO2 PK WND 02028/0942 WSHFT 0938 LTG DSNT N-E TSE49B54 SLP058 FRQ LTGIC N-E TS N-E MOV SE T01670100
  • 080943Z 03019G28KT 10SM BKN027 BKN037 BKN060 18/11 A2973 RMK AO2 PK WND 02028/0942 LTG DSNT NW-E PRESRR FRQ LTG DSNT NW-E CB DSNT NW-E T01830111

TAF KCRW
Valide du 08 à 12h jusqu'au 09 à 12h UTC


081120Z 0812/0912 VRB04KT 5SM -TSRA BKN025CB OVC060
FM081400 VRB05KT P6SM -SHRA VCTS BKN025CB OVC060
FM081600 28012G18KT P6SM BKN045
FM082300 25005KT P6SM SCT250
FM090600 23014G22KT 4SM SHRA VCTS BKN035CB OVC060
FM090800 28010KT P6SM -SHRA OVC040



MET'MAP, la Météo Aéronautique d'un coup d'oeil ! - Copyright ORBIFLY Décembre 2007 - Disclaimer

ORBIFLY MET'MAP TEAM :

Programmation & Développement : Alexandra Zaïnal
Sur une idée originale de : Baudouin d'Aumeries
Assistance à la programmation : Marc-Olivier Méhu
Soutien technique & logistique : Manuel Goepfert

Contact : metmap@orbifly.com




SOURCES & CREDITS :

   NOAA       Earth
Advisory